createdAt,value
2023-02-11T00:00:15.709Z,29.859
2023-02-11T00:05:15.662Z,29.860
2023-02-11T00:10:15.766Z,29.861
2023-02-11T00:15:15.675Z,29.860
2023-02-11T00:20:15.802Z,29.862
2023-02-11T00:25:15.821Z,29.861
2023-02-11T00:30:15.728Z,29.856
2023-02-11T00:35:15.828Z,29.859
2023-02-11T00:40:15.696Z,29.854
2023-02-11T00:45:15.742Z,29.855
2023-02-11T00:50:15.716Z,29.858
2023-02-11T00:55:15.823Z,29.857
2023-02-11T01:00:15.704Z,29.857
2023-02-11T01:05:16.020Z,29.859
2023-02-11T01:10:15.997Z,29.860
2023-02-11T01:15:15.817Z,29.859
2023-02-11T01:20:15.967Z,29.858
2023-02-11T01:25:15.781Z,29.859
2023-02-11T01:30:15.823Z,29.857
2023-02-11T01:35:15.885Z,29.856
2023-02-11T01:40:15.884Z,29.860
2023-02-11T01:45:15.854Z,29.857
2023-02-11T01:50:15.947Z,29.853
2023-02-11T01:55:15.830Z,29.855
2023-02-11T02:00:16.067Z,29.854
2023-02-11T02:05:15.963Z,29.856
2023-02-11T02:10:15.918Z,29.858
2023-02-11T02:15:15.922Z,29.856
2023-02-11T02:20:16.081Z,29.856
2023-02-11T02:25:16.006Z,29.857
2023-02-11T02:30:16.066Z,29.860
2023-02-11T02:35:16.068Z,29.862
2023-02-11T02:40:15.997Z,29.864
2023-02-11T02:45:16.085Z,29.862
2023-02-11T02:50:16.076Z,29.863
2023-02-11T02:55:15.992Z,29.869
2023-02-11T03:00:16.004Z,29.874
2023-02-11T03:05:16.056Z,29.876
2023-02-11T03:10:16.189Z,29.881
2023-02-11T03:15:16.055Z,29.891
2023-02-11T03:20:16.131Z,29.891
2023-02-11T03:25:16.073Z,29.895
2023-02-11T03:30:16.069Z,29.889
2023-02-11T03:35:16.559Z,29.889
2023-02-11T03:40:16.192Z,29.888
2023-02-11T03:45:16.088Z,29.888
2023-02-11T03:50:16.100Z,29.888
2023-02-11T03:55:16.065Z,29.889
2023-02-11T04:00:16.095Z,29.890
2023-02-11T04:05:16.138Z,29.888
2023-02-11T04:10:16.296Z,29.890
2023-02-11T04:15:16.095Z,29.890
2023-02-11T04:20:16.171Z,29.888
2023-02-11T04:25:16.233Z,29.886
2023-02-11T04:30:16.236Z,29.890
2023-02-11T04:35:16.228Z,29.893
2023-02-11T04:40:16.356Z,29.896
2023-02-11T04:45:16.396Z,29.896
2023-02-11T04:50:16.310Z,29.892
2023-02-11T04:55:16.237Z,29.891
2023-02-11T05:00:17.336Z,29.892
2023-02-11T05:05:17.316Z,29.890
2023-02-11T05:10:17.228Z,29.889
2023-02-11T05:15:17.414Z,29.890
2023-02-11T05:20:17.317Z,29.885
2023-02-11T05:25:17.295Z,29.884
2023-02-11T05:30:17.290Z,29.883
2023-02-11T05:35:17.330Z,29.876
2023-02-11T05:40:17.364Z,29.876
2023-02-11T05:45:17.520Z,29.876
2023-02-11T05:50:17.465Z,29.874
2023-02-11T05:55:17.369Z,29.872
2023-02-11T06:00:15.507Z,29.871
2023-02-11T06:05:15.650Z,29.875
2023-02-11T06:10:15.509Z,29.876
2023-02-11T06:15:15.418Z,29.878
2023-02-11T06:20:15.546Z,29.878
2023-02-11T06:25:15.516Z,29.874
2023-02-11T06:30:15.522Z,29.878
2023-02-11T06:35:15.593Z,29.882
2023-02-11T06:40:15.497Z,29.884
2023-02-11T06:45:15.576Z,29.886
2023-02-11T06:50:15.530Z,29.891
2023-02-11T06:55:15.634Z,29.895
2023-02-11T07:00:15.772Z,29.896
2023-02-11T07:05:15.520Z,29.891
2023-02-11T07:10:15.513Z,29.896
2023-02-11T07:15:15.573Z,29.892
2023-02-11T07:20:15.603Z,29.891
2023-02-11T07:25:15.740Z,29.886
2023-02-11T07:30:15.639Z,29.893
2023-02-11T07:35:15.622Z,29.893
2023-02-11T07:40:15.608Z,29.894
2023-02-11T07:45:16.024Z,29.891
2023-02-11T07:50:15.777Z,29.890
2023-02-11T07:55:15.548Z,29.894
2023-02-11T08:00:15.629Z,29.895
2023-02-11T08:05:15.991Z,29.896
2023-02-11T08:10:15.930Z,29.898
2023-02-11T08:15:15.685Z,29.895
2023-02-11T08:20:15.700Z,29.899
2023-02-11T08:25:15.958Z,29.902
2023-02-11T08:30:15.677Z,29.904
2023-02-11T08:35:15.853Z,29.902
2023-02-11T08:40:15.869Z,29.902
2023-02-11T08:45:15.715Z,29.906
2023-02-11T08:50:15.769Z,29.906
2023-02-11T08:55:15.985Z,29.910
2023-02-11T09:00:15.744Z,29.915
2023-02-11T09:05:15.814Z,29.911
2023-02-11T09:10:15.836Z,29.911
2023-02-11T09:15:15.795Z,29.920
2023-02-11T09:20:16.174Z,29.925
2023-02-11T09:25:15.935Z,29.928
2023-02-11T09:30:15.829Z,29.926
2023-02-11T09:35:15.852Z,29.930
2023-02-11T09:40:15.805Z,29.932
2023-02-11T09:45:15.964Z,29.934
2023-02-11T09:50:15.920Z,29.934
2023-02-11T09:55:15.819Z,29.934
2023-02-11T10:00:15.950Z,29.937
2023-02-11T10:05:15.940Z,29.941
2023-02-11T10:10:15.850Z,29.945
2023-02-11T10:15:16.057Z,29.947
2023-02-11T10:20:17.125Z,29.946
2023-02-11T10:25:15.940Z,29.950
2023-02-11T10:30:16.096Z,29.953
2023-02-11T10:35:16.086Z,29.957
2023-02-11T10:40:15.961Z,29.964
2023-02-11T10:45:16.112Z,29.967
2023-02-11T10:50:16.105Z,29.974
2023-02-11T10:55:15.997Z,29.980
2023-02-11T11:00:16.090Z,29.982
2023-02-11T11:05:16.067Z,29.987
2023-02-11T11:10:16.187Z,29.989
2023-02-11T11:15:16.082Z,29.993
2023-02-11T11:20:16.122Z,29.996
2023-02-11T11:25:16.222Z,30.005
2023-02-11T11:30:16.075Z,30.008
2023-02-11T11:35:16.143Z,30.005
2023-02-11T11:40:16.196Z,30.010
2023-02-11T11:45:16.090Z,30.018
2023-02-11T11:50:16.251Z,30.016
2023-02-11T11:55:16.208Z,30.019
2023-02-11T12:00:16.221Z,30.027
2023-02-11T12:05:16.131Z,30.034
2023-02-11T12:10:16.234Z,30.029
2023-02-11T12:15:16.187Z,30.039
2023-02-11T12:20:16.227Z,30.038
2023-02-11T12:25:16.209Z,30.044
2023-02-11T12:30:16.170Z,30.051
2023-02-11T12:35:16.281Z,30.058
2023-02-11T12:40:16.177Z,30.061
2023-02-11T12:45:16.313Z,30.068
2023-02-11T12:50:16.248Z,30.070
2023-02-11T12:55:16.344Z,30.077
2023-02-11T13:00:16.293Z,30.081
2023-02-11T13:05:16.244Z,30.085
2023-02-11T13:10:16.354Z,30.091
2023-02-11T13:15:16.359Z,30.092
2023-02-11T13:20:16.297Z,30.096
2023-02-11T13:25:16.320Z,30.100
2023-02-11T13:30:16.397Z,30.097
2023-02-11T13:35:16.375Z,30.100
2023-02-11T13:40:16.407Z,30.108
2023-02-11T13:45:16.477Z,30.105
2023-02-11T13:50:16.353Z,30.098
2023-02-11T13:55:16.301Z,30.121
2023-02-11T14:00:16.413Z,30.120
2023-02-11T14:05:16.367Z,30.121
2023-02-11T14:10:16.407Z,30.127
2023-02-11T14:15:16.460Z,30.123
2023-02-11T14:20:16.502Z,30.121
2023-02-11T14:25:16.765Z,30.128
2023-02-11T14:30:16.451Z,30.139
2023-02-11T14:35:16.477Z,30.140
2023-02-11T14:40:16.523Z,30.139
2023-02-11T14:45:16.512Z,30.145
2023-02-11T14:50:16.570Z,30.154
2023-02-11T14:55:17.903Z,30.153
2023-02-11T15:00:16.630Z,30.148
2023-02-11T15:05:16.692Z,30.150
2023-02-11T15:10:17.059Z,30.154
2023-02-11T15:15:16.580Z,30.154
2023-02-11T15:20:16.601Z,30.155
2023-02-11T15:25:16.714Z,30.159
2023-02-11T15:30:16.555Z,30.160
2023-02-11T15:35:16.658Z,30.163
2023-02-11T15:40:16.958Z,30.168
2023-02-11T15:45:16.787Z,30.167
2023-02-11T15:50:16.689Z,30.174
2023-02-11T15:55:16.624Z,30.176
2023-02-11T16:00:16.788Z,30.173
2023-02-11T16:05:16.728Z,30.177
2023-02-11T16:10:16.744Z,30.178
2023-02-11T16:15:16.810Z,30.181
2023-02-11T16:20:16.682Z,30.175
2023-02-11T16:25:18.964Z,30.177
2023-02-11T16:30:16.870Z,30.182
2023-02-11T16:35:16.677Z,30.181
2023-02-11T16:40:16.726Z,30.186
2023-02-11T16:45:16.810Z,30.188
2023-02-11T16:50:16.847Z,30.188
2023-02-11T16:55:16.837Z,30.191
2023-02-11T17:00:16.809Z,30.186
2023-02-11T17:05:16.875Z,30.186
2023-02-11T17:10:16.923Z,30.190
2023-02-11T17:15:16.805Z,30.189
2023-02-11T17:20:16.865Z,30.185
2023-02-11T17:25:16.908Z,30.189
2023-02-11T17:30:16.800Z,30.183
2023-02-11T17:35:16.892Z,30.182
2023-02-11T17:40:16.891Z,30.185
2023-02-11T17:45:16.810Z,30.187
2023-02-11T17:50:17.048Z,30.187
2023-02-11T17:55:17.157Z,30.186
2023-02-11T18:00:17.052Z,30.188
2023-02-11T18:05:17.010Z,30.189
2023-02-11T18:10:17.081Z,30.187
2023-02-11T18:15:16.924Z,30.187
2023-02-11T18:20:17.026Z,30.189
2023-02-11T18:25:17.029Z,30.190
2023-02-11T18:30:17.348Z,30.193
2023-02-11T18:35:17.056Z,30.196
2023-02-11T18:40:17.001Z,30.195
2023-02-11T18:45:17.060Z,30.192
2023-02-11T18:50:17.022Z,30.193
2023-02-11T18:55:17.150Z,30.193
2023-02-11T19:00:17.065Z,30.194
2023-02-11T19:05:17.057Z,30.200
2023-02-11T19:10:17.137Z,30.204
2023-02-11T19:15:17.141Z,30.202
2023-02-11T19:20:17.163Z,30.203
2023-02-11T19:25:17.273Z,30.204
2023-02-11T19:30:17.146Z,30.205
2023-02-11T19:35:17.181Z,30.206
2023-02-11T19:40:17.269Z,30.210
2023-02-11T19:45:17.182Z,30.211
2023-02-11T19:50:17.184Z,30.211
2023-02-11T19:55:17.142Z,30.206
2023-02-11T20:00:17.198Z,30.208
2023-02-11T20:05:17.181Z,30.207
2023-02-11T20:10:17.535Z,30.209
2023-02-11T20:15:17.319Z,30.212
2023-02-11T20:20:17.259Z,30.207
2023-02-11T20:25:17.323Z,30.209
2023-02-11T20:30:17.252Z,30.208
2023-02-11T20:35:17.348Z,30.210
2023-02-11T20:40:17.245Z,30.210
2023-02-11T20:45:17.356Z,30.210
2023-02-11T20:50:17.367Z,30.206
2023-02-11T20:55:17.274Z,30.210
2023-02-11T21:00:17.340Z,30.213
2023-02-11T21:05:17.433Z,30.213
2023-02-11T21:10:17.531Z,30.219
2023-02-11T21:15:17.417Z,30.218
2023-02-11T21:20:17.366Z,30.219
2023-02-11T21:25:17.388Z,30.221
2023-02-11T21:30:15.576Z,30.227
2023-02-11T21:35:15.468Z,30.225
2023-02-11T21:40:15.394Z,30.223
2023-02-11T21:45:15.397Z,30.225
2023-02-11T21:50:15.577Z,30.231
2023-02-11T21:55:15.841Z,30.230
2023-02-11T22:00:15.481Z,30.231
2023-02-11T22:05:15.504Z,30.235
2023-02-11T22:10:15.628Z,30.241
2023-02-11T22:15:15.442Z,30.240
2023-02-11T22:20:15.644Z,30.245
2023-02-11T22:25:15.482Z,30.246
2023-02-11T22:30:15.505Z,30.248
2023-02-11T22:35:15.549Z,30.250
2023-02-11T22:40:15.451Z,30.255
2023-02-11T22:45:15.560Z,30.252
2023-02-11T22:50:15.536Z,30.255
2023-02-11T22:55:15.567Z,30.260
2023-02-11T23:00:15.609Z,30.258
2023-02-11T23:05:15.737Z,30.259
2023-02-11T23:10:15.534Z,30.260
2023-02-11T23:15:15.727Z,30.259
2023-02-11T23:20:15.642Z,30.260
2023-02-11T23:25:15.631Z,30.258
2023-02-11T23:30:15.594Z,30.261
2023-02-11T23:35:15.681Z,30.258
2023-02-11T23:40:15.657Z,30.258
2023-02-11T23:45:15.660Z,30.254
2023-02-11T23:50:15.689Z,30.253
2023-02-11T23:55:15.619Z,30.254
